Zion National Park, Utah
Current Conditions -  °F | °C
As of 5:35 AM on Friday 24 Oct 2014 (Local Time) from KAZC Reporting Station
Clear Clear  
Wind Chill:   Ceiling: Unl
Heat Index:   Visibility: 7mi
Dew Point:   Wind: 5mph
Humidity: 79%   Direction: 140°SE
Pressure: 30.26"   Gusts: NA
Location:  37.1888°N, 113°W
Report Text: KAZC 241135Z AUTO 14004KT 7SM CLR 04/01 A3026 RMK AO2 T00400006
Loading
Personal Weather Stations






























Interactive Weather Map
Tropical Storm Tracking
New forecast layout! Learn more

10-Day Weather Forecast

Advertisements
Track Severe Weather on mobile